Time;durP1;ratioP1;P1;durP2;ratioP2;P2;SDS_P1;SDS_P2;PMS_P1;PMS_P2;Temp;Humidity;BMP_temperature;BMP_pressure;BME280_temperature;BME280_humidity;BME280_pressure;Samples;Min_cycle;Max_cycle;Signal;HPM_P1;HPM_P2
2022/05/25 00:01:00;;;;;;;4.05;2.70;;;;;;;12.30;74.95;100592.38;7396696;19;20375;-70
2022/05/25 00:03:28;;;;;;;3.15;2.65;;;;;;;12.27;74.89;100589.81;7398905;19;20580;-70
2022/05/25 00:05:57;;;;;;;3.22;2.90;;;;;;;12.24;75.10;100585.53;7396814;19;20022;-69
2022/05/25 00:08:25;;;;;;;4.32;3.10;;;;;;;12.21;75.30;100593.53;7399007;19;20098;-69
2022/05/25 00:10:53;;;;;;;3.25;2.95;;;;;;;12.18;75.29;100597.09;7396591;19;20226;-69
2022/05/25 00:13:21;;;;;;;5.07;2.85;;;;;;;12.17;75.27;100600.63;7398916;19;20035;-69
2022/05/25 00:15:49;;;;;;;5.68;3.58;;;;;;;12.15;75.49;100596.34;7398659;19;20035;-70
2022/05/25 00:18:20;;;;;;;3.17;2.88;;;;;;;12.12;75.46;100599.03;7398716;19;20022;-69
2022/05/25 00:20:46;;;;;;;3.78;3.00;;;;;;;12.08;75.62;100593.03;7396658;19;20022;-69
2022/05/25 00:23:14;;;;;;;5.60;3.30;;;;;;;12.07;75.93;100593.94;7399453;19;20471;-70
2022/05/25 00:25:42;;;;;;;3.58;2.95;;;;;;;12.04;75.98;100594.91;7398148;19;20404;-70
2022/05/25 00:28:12;;;;;;;3.25;2.95;;;;;;;12.01;76.07;100592.34;7398448;19;20027;-69
2022/05/25 00:30:55;;;;;;;6.68;3.70;;;;;;;11.99;76.18;100591.56;7393836;19;20112;-69
2022/05/25 00:33:26;;;;;;;5.53;3.03;;;;;;;11.97;76.35;100598.59;7398511;19;20430;-70
2022/05/25 00:35:55;;;;;;;3.42;2.80;;;;;;;11.94;76.43;100598.66;7399770;19;20417;-69
2022/05/25 00:38:23;;;;;;;3.88;3.08;;;;;;;11.87;76.41;100603.25;7398063;19;20085;-69
2022/05/25 00:40:51;;;;;;;4.60;3.08;;;;;;;11.84;76.37;100605.97;7395013;19;20022;-70
2022/05/25 00:43:19;;;;;;;3.42;3.13;;;;;;;11.80;76.48;100601.69;7396618;19;20031;-70
2022/05/25 00:45:50;;;;;;;3.72;3.42;;;;;;;11.78;76.55;100603.53;7397780;19;20022;-69
2022/05/25 00:48:23;;;;;;;3.50;3.20;;;;;;;11.75;76.62;100603.59;7398143;19;20022;-69
2022/05/25 00:53:35;;;;;;;5.47;3.42;;;;;;;11.70;76.52;100601.13;7397736;19;20014;-69
2022/05/25 00:56:03;;;;;;;4.57;3.65;;;;;;;11.68;76.51;100594.19;7397437;19;20022;-69
2022/05/25 00:58:32;;;;;;;4.10;3.70;;;;;;;11.67;76.65;100597.72;7395477;19;20022;-69
2022/05/25 01:01:00;;;;;;;4.22;3.50;;;;;;;11.64;76.83;100601.28;7395309;19;20035;-69
2022/05/25 01:03:29;;;;;;;3.92;3.60;;;;;;;11.62;76.78;100603.09;7397200;19;20029;-70
2022/05/25 01:06:06;;;;;;;4.88;4.07;;;;;;;11.56;76.88;100604.13;7397069;19;20015;-69
2022/05/25 01:08:44;;;;;;;4.32;3.60;;;;;;;11.55;77.02;100596.28;7397136;19;20027;-70
2022/05/25 01:11:27;;;;;;;3.92;3.60;;;;;;;11.52;77.00;100602.47;7396831;19;20026;-70
2022/05/25 01:14:06;;;;;;;4.30;3.90;;;;;;;11.49;77.23;100610.47;7398052;19;20015;-70
2022/05/25 01:16:44;;;;;;;4.63;4.18;;;;;;;11.45;77.26;100621.09;7396354;19;20516;-69
2022/05/25 01:19:31;;;;;;;5.97;4.07;;;;;;;11.41;77.30;100617.66;7397441;19;20469;-69
2022/05/25 01:22:07;;;;;;;4.05;3.65;;;;;;;11.38;77.43;100625.66;7396692;19;20035;-70
2022/05/25 01:24:41;;;;;;;4.47;4.07;;;;;;;11.34;77.56;100635.38;7396945;19;20019;-70
2022/05/25 01:27:31;;;;;;;5.45;4.28;;;;;;;11.30;77.58;100633.75;7396959;19;20022;-70
2022/05/25 01:30:20;;;;;;;4.43;4.00;;;;;;;11.27;77.82;100635.59;7395098;19;20014;-69
2022/05/25 01:33:11;;;;;;;5.00;4.50;;;;;;;11.23;77.83;100645.31;7395156;19;20031;-70
2022/05/25 01:35:55;;;;;;;5.55;4.57;;;;;;;11.19;78.00;100647.13;7396474;19;20011;-70
2022/05/25 01:38:28;;;;;;;5.20;4.05;;;;;;;11.16;77.88;100649.84;7396515;19;20037;-70
2022/05/25 01:41:02;;;;;;;6.45;4.03;;;;;;;11.13;78.14;100655.16;7394545;19;20014;-69
2022/05/25 01:43:37;;;;;;;5.82;4.35;;;;;;;11.08;78.15;100660.56;7396319;19;20022;-69
2022/05/25 01:46:13;;;;;;;5.85;5.03;;;;;;;11.05;78.22;100673.75;7396372;19;20021;-70
2022/05/25 01:48:43;;;;;;;5.43;4.32;;;;;;;11.02;78.33;100665.97;7396055;19;20027;-70
2022/05/25 01:51:16;;;;;;;4.10;3.70;;;;;;;11.00;78.40;100669.53;7394059;19;20354;-70
2022/05/25 01:53:52;;;;;;;4.60;3.95;;;;;;;10.97;78.30;100656.47;7395493;19;20035;-69
2022/05/25 01:56:23;;;;;;;4.72;4.00;;;;;;;10.95;78.45;100656.50;7395642;19;20363;-69
2022/05/25 01:58:58;;;;;;;6.57;4.55;;;;;;;10.95;78.42;100664.38;7394225;19;20026;-70
2022/05/25 02:01:29;;;;;;;5.68;4.20;;;;;;;10.92;78.41;100654.81;7395791;19;20033;-70
2022/05/25 02:06:53;;;;;;;6.63;4.00;;;;;;;10.89;78.40;100649.66;7395862;19;20021;-69
2022/05/25 02:09:30;;;;;;;4.20;3.90;;;;;;;10.87;78.46;100646.19;7394521;19;20023;-69
2022/05/25 02:12:09;;;;;;;4.60;3.85;;;;;;;10.86;78.54;100644.47;7394374;19;20474;-69
2022/05/25 02:14:47;;;;;;;4.70;4.00;;;;;;;10.82;78.61;100640.19;7395824;19;20032;-69
2022/05/25 02:17:28;;;;;;;4.20;3.80;;;;;;;10.81;78.56;100645.50;7395660;19;20014;-70
2022/05/25 02:20:02;;;;;;;5.45;4.20;;;;;;;10.79;78.57;100648.13;7394069;19;20022;-69
2022/05/25 02:22:38;;;;;;;5.13;3.50;;;;;;;10.78;78.68;100650.81;7395324;19;20015;-70
2022/05/25 02:25:14;;;;;;;4.47;3.78;;;;;;;10.77;78.77;100660.44;7395170;19;20023;-69
2022/05/25 02:27:48;;;;;;;4.78;3.80;;;;;;;10.74;78.77;100660.50;7394585;19;20422;-69
2022/05/25 02:30:18;;;;;;;;;;;;;;;10.73;78.70;100659.66;7393813;19;20028;-69
2022/05/25 02:32:54;;;;;;;5.05;3.75;;;;;;;10.71;78.64;100671.94;7393165;19;19919;-69
2022/05/25 02:35:25;;;;;;;5.13;4.55;;;;;;;10.70;78.82;100664.97;7394690;19;20078;-69
2022/05/25 02:37:55;;;;;;;5.85;3.67;;;;;;;10.70;78.78;100666.72;7392295;19;20033;-69
2022/05/25 02:40:23;;;;;;;6.13;4.05;;;;;;;10.69;78.79;100668.50;7392926;19;20031;-69
2022/05/25 02:42:51;;;;;;;5.07;3.67;;;;;;;10.69;78.86;100665.88;7394904;19;20019;-69
2022/05/25 02:45:20;;;;;;;4.72;4.32;;;;;;;10.68;78.80;100672.03;7392049;19;20019;-69
2022/05/25 02:47:51;;;;;;;5.38;3.80;;;;;;;10.69;78.86;100672.88;7394378;19;20041;-69
2022/05/25 02:50:20;;;;;;;6.90;4.30;;;;;;;10.69;79.00;100657.13;7392511;19;20022;-69
2022/05/25 02:52:48;;;;;;;6.18;4.43;;;;;;;10.69;78.96;100654.50;7391919;19;20041;-69
2022/05/25 02:55:16;;;;;;;5.28;3.88;;;;;;;10.69;78.96;100665.00;7393477;19;20541;-69
2022/05/25 02:57:44;;;;;;;5.00;4.60;;;;;;;10.69;79.00;100663.25;7393871;19;20015;-69
2022/05/25 03:00:15;;;;;;;4.47;4.07;;;;;;;10.68;79.04;100661.53;7391648;19;20018;-69
2022/05/25 03:02:43;;;;;;;6.57;4.55;;;;;;;10.69;79.19;100665.00;7394266;19;20021;-70
2022/05/25 03:05:15;;;;;;;5.13;4.63;;;;;;;10.69;79.15;100675.50;7393969;19;20026;-69
2022/05/25 03:07:43;;;;;;;4.68;4.28;;;;;;;10.68;79.30;100677.25;7401548;19;20031;-69
2022/05/25 03:10:18;;;;;;;4.40;4.00;;;;;;;10.68;79.37;100681.63;7399210;19;20035;-69
2022/05/25 03:12:47;;;;;;;4.85;4.28;;;;;;;10.66;79.25;100688.69;7398694;19;20480;-69
2022/05/25 03:15:20;;;;;;;4.72;4.20;;;;;;;10.66;79.44;100683.44;7401015;19;20436;-69
2022/05/25 03:17:48;;;;;;;4.70;4.30;;;;;;;10.66;79.51;100691.31;7401296;19;20031;-69
2022/05/25 03:20:20;;;;;;;4.57;3.95;;;;;;;10.67;79.45;100693.91;7397900;19;20022;-69
2022/05/25 03:22:48;;;;;;;6.25;4.82;;;;;;;10.67;79.40;100698.31;7398462;19;20103;-69
2022/05/25 03:25:17;;;;;;;5.20;3.92;;;;;;;10.67;79.30;100704.41;7401575;19;20019;-69
2022/05/25 03:27:45;;;;;;;6.03;4.10;;;;;;;10.67;79.37;100706.16;7400210;19;20019;-68
2022/05/25 03:30:16;;;;;;;4.95;4.32;;;;;;;10.67;79.44;100716.66;7397223;19;20022;-69
2022/05/25 03:32:45;;;;;;;5.88;4.47;;;;;;;10.67;79.35;100716.66;7399091;19;20043;-69
2022/05/25 03:35:13;;;;;;;5.20;4.30;;;;;;;10.66;79.31;100723.66;7399539;19;20082;-70
2022/05/25 03:37:44;;;;;;;6.28;4.38;;;;;;;10.66;79.26;100722.81;7399894;19;20028;-70
2022/05/25 03:40:15;;;;;;;4.32;3.92;;;;;;;10.66;79.15;100726.28;7398206;19;20427;-70
2022/05/25 03:42:46;;;;;;;8.23;5.05;;;;;;;10.67;79.16;100725.38;7399993;19;20026;-70
2022/05/25 03:45:16;;;;;;;4.80;4.25;;;;;;;10.69;79.18;100725.34;7400157;19;20098;-70
2022/05/25 03:47:44;;;;;;;5.00;4.60;;;;;;;10.68;79.29;100724.50;7399904;19;20537;-69
2022/05/25 03:50:13;;;;;;;5.70;4.47;;;;;;;10.71;79.28;100734.06;7396492;19;20022;-70
2022/05/25 03:52:44;;;;;;;6.70;5.10;;;;;;;10.73;79.28;100727.03;7397804;19;20075;-69
2022/05/25 03:55:12;;;;;;;6.05;4.93;;;;;;;10.75;79.20;100725.22;7396555;19;20485;-69
2022/05/25 03:57:40;;;;;;;6.45;4.45;;;;;;;10.78;79.23;100732.16;7399287;19;20035;-69
2022/05/25 04:00:10;;;;;;;5.22;4.72;;;;;;;10.80;79.30;100731.22;7397450;19;20022;-70
2022/05/25 04:02:38;;;;;;;6.90;4.90;;;;;;;10.82;79.19;100733.84;7398970;19;20023;-70
2022/05/25 04:05:12;;;;;;;4.93;4.40;;;;;;;10.86;79.08;100740.72;7398747;19;20018;-68
2022/05/25 04:07:44;;;;;;;5.65;4.60;;;;;;;10.88;79.12;100744.16;7399231;19;20035;-68
2022/05/25 04:10:15;;;;;;;5.40;4.90;;;;;;;10.90;79.01;100740.59;7397079;19;20394;-69
2022/05/25 04:12:44;;;;;;;5.95;4.90;;;;;;;10.92;78.94;100749.31;7396846;19;20422;-69
2022/05/25 04:15:15;;;;;;;5.95;5.07;;;;;;;10.96;78.97;100746.63;7398542;19;20032;-69
2022/05/25 04:17:44;;;;;;;6.60;4.90;;;;;;;10.97;78.93;100746.59;7398039;19;20423;-69
2022/05/25 04:20:14;;;;;;;5.13;4.70;;;;;;;10.99;78.89;100751.81;7395891;19;20070;-69
2022/05/25 04:22:45;;;;;;;5.25;4.75;;;;;;;10.99;78.70;100752.66;7396468;19;20035;-69
2022/05/25 04:25:17;;;;;;;6.03;5.18;;;;;;;11.02;78.69;100754.34;7398332;19;20036;-69
2022/05/25 04:27:47;;;;;;;5.00;4.60;;;;;;;11.04;78.73;100758.66;7395554;19;20484;-69
2022/05/25 04:30:18;;;;;;;5.93;4.85;;;;;;;11.07;78.60;100757.75;7395105;19;20031;-68
2022/05/25 04:32:46;;;;;;;5.78;5.13;;;;;;;11.10;78.52;100757.66;7395809;19;20018;-69
2022/05/25 04:35:16;;;;;;;6.47;4.95;;;;;;;11.12;78.58;100762.88;7396812;19;20035;-69
2022/05/25 04:37:55;;;;;;;7.13;5.53;;;;;;;11.15;78.38;100765.44;7394825;19;20018;-70
2022/05/25 04:40:28;;;;;;;6.38;4.93;;;;;;;11.18;78.28;100767.97;7395966;19;20018;-69
2022/05/25 04:42:58;;;;;;;5.85;4.63;;;;;;;11.19;78.27;100767.09;7397622;19;20430;-69
2022/05/25 04:45:28;;;;;;;6.47;5.55;;;;;;;11.22;78.12;100764.38;7397250;19;20018;-69
2022/05/25 04:47:57;;;;;;;5.85;4.75;;;;;;;11.25;78.06;100767.78;7397322;19;20018;-69
2022/05/25 04:50:27;;;;;;;6.07;5.28;;;;;;;11.29;77.86;100752.81;7396157;19;20045;-70
2022/05/25 04:52:59;;;;;;;5.95;4.93;;;;;;;11.34;77.75;100755.34;7395487;19;20023;-69
2022/05/25 04:58:19;;;;;;;5.70;5.15;;;;;;;11.44;77.39;100755.97;7396373;19;20006;-67
2022/05/25 05:00:54;;;;;;;5.90;5.30;;;;;;;11.49;77.30;100759.34;7393500;19;20335;-69
2022/05/25 05:03:23;;;;;;;5.63;4.95;;;;;;;11.53;77.20;100759.22;7396714;19;20091;-68
2022/05/25 05:05:53;;;;;;;5.95;5.40;;;;;;;11.59;77.17;100763.47;7395529;19;20040;-67
2022/05/25 05:08:24;;;;;;;5.30;4.88;;;;;;;11.64;77.04;100769.47;7393855;19;20485;-70
2022/05/25 05:10:53;;;;;;;7.93;5.57;;;;;;;11.67;76.92;100769.38;7394777;19;20025;-70
2022/05/25 05:13:22;;;;;;;8.38;6.30;;;;;;;11.74;76.81;100763.06;7395651;19;20018;-70
2022/05/25 05:16:13;;;;;;;6.10;5.53;;;;;;;11.83;76.76;100759.34;7395356;19;20103;-70
2022/05/25 05:18:42;;;;;;;8.05;5.70;;;;;;;11.90;76.66;100760.91;7395680;19;20018;-69
2022/05/25 05:21:10;;;;;;;6.75;5.13;;;;;;;11.98;76.54;100762.47;7393776;19;20029;-69
2022/05/25 05:23:43;;;;;;;13.55;6.47;;;;;;;12.07;76.39;100759.63;7395601;19;20029;-69
2022/05/25 05:26:11;;;;;;;14.80;5.55;;;;;;;12.18;76.37;100764.56;7396149;19;20023;-70
2022/05/25 05:28:42;;;;;;;14.27;6.57;;;;;;;12.29;76.09;100772.16;7391620;19;20489;-70
2022/05/25 05:31:16;;;;;;;35.17;8.30;;;;;;;12.37;75.83;100771.03;7393470;19;20015;-69
2022/05/25 05:33:45;;;;;;;34.83;7.80;;;;;;;12.49;75.75;100774.22;7394018;19;20031;-68
2022/05/25 05:36:16;;;;;;;8.07;5.63;;;;;;;12.60;75.67;100776.50;7394544;19;20064;-68
2022/05/25 05:38:52;;;;;;;10.35;5.72;;;;;;;12.69;75.39;100777.09;7394816;19;20018;-70
2022/05/25 05:41:24;;;;;;;8.07;5.78;;;;;;;12.80;75.23;100779.44;7393351;19;20039;-70
2022/05/25 05:43:53;;;;;;;11.35;5.30;;;;;;;12.90;75.04;100782.63;7394976;19;20031;-70
2022/05/25 05:46:22;;;;;;;5.88;5.32;;;;;;;13.00;74.48;100789.34;7393465;19;20022;-70
2022/05/25 05:48:51;;;;;;;5.75;4.53;;;;;;;13.11;74.36;100793.41;7393682;19;20022;-71
2022/05/25 05:51:20;;;;;;;5.05;4.55;;;;;;;13.19;73.97;100792.25;7395521;19;20031;-70
2022/05/25 05:53:51;;;;;;;8.45;5.30;;;;;;;13.31;73.71;100792.78;7394322;19;20022;-69
2022/05/25 05:56:19;;;;;;;5.85;4.53;;;;;;;13.42;73.34;100792.44;7395185;19;20010;-68
2022/05/25 05:58:48;;;;;;;5.93;4.78;;;;;;;13.53;73.15;100790.31;7393328;19;20043;-69
2022/05/25 06:01:16;;;;;;;8.93;5.05;;;;;;;13.63;72.69;100797.00;7393878;19;20031;-69
2022/05/25 06:03:44;;;;;;;10.55;5.88;;;;;;;13.75;72.81;100795.75;7394796;19;20039;-69
2022/05/25 06:06:12;;;;;;;12.77;4.18;;;;;;;13.88;72.27;100795.31;7394733;19;20036;-69
2022/05/25 06:08:42;;;;;;;12.30;4.28;;;;;;;14.00;71.73;100797.50;7392162;19;20476;-70
2022/05/25 06:11:13;;;;;;;10.02;4.20;;;;;;;14.13;71.24;100798.81;7394927;19;20018;-69
2022/05/25 06:13:42;;;;;;;13.95;5.00;;;;;;;14.26;70.74;100801.00;7393478;19;20022;-70
2022/05/25 06:21:31;;;;;;;17.73;4.63;;;;;;;14.66;69.21;100810.97;7394612;19;20046;-69
2022/05/25 06:23:59;;;;;;;11.25;4.15;;;;;;;14.78;68.75;100814.09;7393698;19;20036;-68
2022/05/25 06:26:30;;;;;;;6.25;3.53;;;;;;;14.90;67.72;100820.66;7391914;19;20019;-69
2022/05/25 06:28:59;;;;;;;4.82;3.30;;;;;;;14.99;67.40;100815.88;7393661;19;20057;-69
2022/05/25 06:31:35;;;;;;;4.63;3.13;;;;;;;15.08;67.06;100819.09;7391791;19;20480;-69
2022/05/25 06:34:03;;;;;;;5.30;3.00;;;;;;;15.18;66.76;100823.09;7392902;19;20065;-69
2022/05/25 06:36:32;;;;;;;5.20;3.42;;;;;;;15.27;66.31;100832.44;7393617;19;20092;-69
2022/05/25 06:39:01;;;;;;;3.97;3.00;;;;;;;15.33;65.53;100826.91;7391127;19;20014;-69
2022/05/25 06:41:32;;;;;;;4.10;2.42;;;;;;;15.38;64.95;100824.94;7397489;19;20026;-69
2022/05/25 06:44:00;;;;;;;4.30;2.40;;;;;;;15.44;64.97;100829.09;7398898;19;20473;-69
2022/05/25 06:46:29;;;;;;;5.05;2.58;;;;;;;15.50;64.67;100830.66;7398104;19;20125;-70
2022/05/25 06:48:59;;;;;;;3.17;2.10;;;;;;;15.55;64.35;100837.47;7400641;19;20014;-68
2022/05/25 06:51:29;;;;;;;4.22;2.20;;;;;;;15.59;63.72;100843.47;7401515;19;20010;-69
2022/05/25 06:53:59;;;;;;;8.95;2.58;;;;;;;15.59;63.36;100836.41;7399354;19;20040;-69
2022/05/25 06:56:28;;;;;;;9.75;2.53;;;;;;;15.62;63.43;100836.28;7400993;19;20022;-70
2022/05/25 06:58:59;;;;;;;10.20;3.05;;;;;;;15.64;63.00;100845.03;7397721;19;20466;-70
2022/05/25 07:01:28;;;;;;;3.58;2.10;;;;;;;15.64;62.23;100847.69;7401013;19;20048;-69
2022/05/25 07:03:57;;;;;;;3.20;2.00;;;;;;;15.64;62.08;100855.63;7400703;19;20027;-69
2022/05/25 07:06:26;;;;;;;3.10;1.90;;;;;;;15.62;61.70;100860.09;7400348;19;20014;-68
2022/05/25 07:08:55;;;;;;;2.35;1.80;;;;;;;15.63;61.70;100851.25;7399939;19;20029;-69
2022/05/25 07:11:25;;;;;;;2.08;1.77;;;;;;;15.68;61.46;100852.81;7400326;19;20027;-68
2022/05/25 07:13:54;;;;;;;3.78;1.95;;;;;;;15.72;61.11;100854.41;7397690;19;20083;-68
2022/05/25 07:16:24;;;;;;;3.35;2.17;;;;;;;15.73;60.93;100864.94;7396341;19;20491;-69
2022/05/25 07:18:53;;;;;;;3.88;2.00;;;;;;;15.79;60.82;100862.03;7400062;19;20031;-68
2022/05/25 07:21:25;;;;;;;2.75;1.85;;;;;;;15.83;60.48;100856.66;7399943;19;20052;-69
2022/05/25 07:23:54;;;;;;;3.67;2.25;;;;;;;15.87;60.34;100864.41;7397343;19;20048;-68
2022/05/25 07:26:24;;;;;;;4.63;2.00;;;;;;;15.90;60.13;100863.41;7399767;19;20018;-69
2022/05/25 07:28:53;;;;;;;1.70;1.60;;;;;;;15.95;60.07;100866.72;7397194;19;20026;-69
2022/05/25 07:31:29;;;;;;;2.42;1.95;;;;;;;15.99;59.39;100863.03;7397258;19;20018;-70
2022/05/25 07:34:03;;;;;;;7.13;2.53;;;;;;;16.04;59.64;100858.38;7396904;19;20682;-69
2022/05/25 07:36:32;;;;;;;3.28;2.47;;;;;;;16.12;59.68;100864.22;7399932;19;20503;-68
2022/05/25 07:39:03;;;;;;;8.00;2.55;;;;;;;16.21;59.33;100862.09;7396369;19;20091;-69
2022/05/25 07:41:35;;;;;;;6.53;2.38;;;;;;;16.26;59.42;100866.28;7399893;19;20026;-69
2022/05/25 07:44:03;;;;;;;31.23;4.72;;;;;;;16.34;59.14;100857.13;7397147;19;20019;-69
2022/05/25 07:46:35;;;;;;;22.20;4.18;;;;;;;16.48;59.31;100872.38;7398766;19;20506;-67
2022/05/25 07:49:04;;;;;;;5.57;1.90;;;;;;;16.57;58.84;100859.59;7399174;19;20023;-68
2022/05/25 07:51:32;;;;;;;9.93;2.22;;;;;;;16.65;58.45;100867.19;7397973;19;20497;-68
2022/05/25 07:54:03;;;;;;;6.63;1.95;;;;;;;16.71;58.39;100861.63;7396910;19;20031;-67
2022/05/25 07:56:34;;;;;;;6.55;1.60;;;;;;;16.76;57.80;100862.28;7396947;19;20071;-70
2022/05/25 07:59:02;;;;;;;2.92;1.75;;;;;;;16.81;57.66;100867.38;7398655;19;20015;-69
2022/05/25 08:07:00;;;;;;;2.88;1.30;;;;;;;16.86;57.44;100869.81;7398780;19;20441;-69
2022/05/25 08:09:30;;;;;;;3.90;1.80;;;;;;;16.88;57.20;100870.59;7396789;19;20018;-68
2022/05/25 08:11:58;;;;;;;4.75;1.90;;;;;;;16.90;57.23;100877.53;7398359;19;20031;-69
2022/05/25 08:14:28;;;;;;;24.50;3.35;;;;;;;16.93;57.26;100881.88;7396754;19;20042;-69
2022/05/25 08:16:59;;;;;;;12.68;2.63;;;;;;;16.94;57.35;100881.78;7398727;19;20034;-69
2022/05/25 08:19:27;;;;;;;4.18;2.00;;;;;;;16.96;57.63;100871.13;7397752;19;20057;-69
2022/05/25 08:21:55;;;;;;;5.05;1.95;;;;;;;16.99;57.50;100875.44;7395785;19;20027;-68
2022/05/25 08:24:24;;;;;;;2.75;1.85;;;;;;;16.99;57.05;100878.09;7395347;19;20018;-69
2022/05/25 08:26:52;;;;;;;2.97;1.73;;;;;;;17.00;57.03;100875.34;7395703;19;20026;-69
2022/05/25 08:29:20;;;;;;;6.13;1.85;;;;;;;16.99;57.05;100881.59;7395132;19;20406;-68
2022/05/25 08:31:50;;;;;;;4.68;1.67;;;;;;;17.01;57.23;100879.72;7394146;19;20413;-68
2022/05/25 08:34:21;;;;;;;2.70;1.80;;;;;;;17.06;57.48;100875.06;7396724;19;20040;-67
2022/05/25 08:36:49;;;;;;;2.13;1.58;;;;;;;17.14;57.26;100880.00;7395728;19;20018;-71
2022/05/25 08:39:17;;;;;;;4.57;2.00;;;;;;;17.22;57.27;100869.88;7396819;19;20018;-70
2022/05/25 08:41:47;;;;;;;2.75;1.80;;;;;;;17.32;56.65;100880.06;7397112;19;20039;-68
2022/05/25 08:44:15;;;;;;;2.80;1.98;;;;;;;17.39;56.79;100877.06;7397707;19;20018;-66
2022/05/25 08:46:44;;;;;;;2.50;1.83;;;;;;;17.49;56.32;100873.94;7397260;19;20022;-67
2022/05/25 08:49:15;;;;;;;4.07;1.52;;;;;;;17.58;55.63;100873.50;7396410;19;20504;-67
2022/05/25 08:51:49;;;;;;;4.07;1.30;;;;;;;17.66;55.43;100875.78;7395096;19;20015;-68
2022/05/25 08:54:20;;;;;;;2.65;1.42;;;;;;;17.69;54.76;100891.53;7394864;19;20493;-66
2022/05/25 08:56:50;;;;;;;2.05;1.13;;;;;;;17.65;54.76;100882.88;7396343;19;20464;-67
2022/05/25 08:59:23;;;;;;;3.20;1.80;;;;;;;17.64;54.16;100885.59;7394967;19;20035;-67
2022/05/25 09:01:58;;;;;;;2.83;1.38;;;;;;;17.63;53.26;100889.19;7394756;19;20019;-68
2022/05/25 09:04:45;;;;;;;3.90;1.60;;;;;;;17.58;53.80;100889.44;7396819;19;20025;-67
2022/05/25 09:07:25;;;;;;;4.05;1.30;;;;;;;17.53;53.74;100891.44;7395489;19;20022;-67
2022/05/25 09:09:54;;;;;;;3.58;1.52;;;;;;;17.44;54.64;100887.44;7396128;19;20066;-68
2022/05/25 09:12:27;;;;;;;5.70;1.75;;;;;;;17.34;54.33;100886.16;7395181;19;20023;-68
2022/05/25 09:15:02;;;;;;;4.80;1.20;;;;;;;17.24;53.08;100891.06;7395802;19;20023;-68
2022/05/25 09:17:35;;;;;;;0.93;0.82;;;;;;;17.18;53.56;100896.63;7396565;19;20473;-68
2022/05/25 09:20:03;;;;;;;8.45;2.58;;;;;;;17.15;53.69;100888.81;7395693;19;20035;-68
2022/05/25 09:22:34;;;;;;;4.32;1.10;;;;;;;17.16;52.61;100896.72;7395773;19;20506;-67
2022/05/25 09:25:06;;;;;;;2.00;1.25;;;;;;;17.18;51.59;100894.00;7396828;19;20039;-67
2022/05/25 09:27:41;;;;;;;2.78;1.30;;;;;;;17.15;51.05;100897.66;7395547;19;20018;-68
2022/05/25 09:30:11;;;;;;;5.82;1.05;;;;;;;17.19;51.84;100898.38;7394219;19;20022;-70
2022/05/25 09:32:50;;;;;;;2.03;0.90;;;;;;;17.25;50.97;100893.63;7395556;19;20010;-68
2022/05/25 09:35:23;;;;;;;3.60;1.10;;;;;;;17.35;51.04;100888.75;7394478;19;20468;-69
2022/05/25 09:37:57;;;;;;;34.28;5.35;;;;;;;17.46;50.87;100893.50;7393855;19;20022;-68
2022/05/25 09:40:33;;;;;;;3.08;1.27;;;;;;;17.56;51.23;100885.97;7394009;19;20018;-68
2022/05/25 09:43:04;;;;;;;1.58;1.23;;;;;;;17.70;50.70;100882.66;7394279;19;20019;-69
2022/05/25 09:45:44;;;;;;;6.28;1.20;;;;;;;17.88;50.29;100875.56;7396166;19;20099;-69
2022/05/25 09:48:19;;;;;;;55.20;6.53;;;;;;;18.06;49.34;100879.13;7394267;19;20022;-68
2022/05/25 09:50:52;;;;;;;2.08;1.15;;;;;;;18.22;48.27;100884.50;7393715;19;20018;-68
2022/05/25 09:53:26;;;;;;;2.75;1.45;;;;;;;18.35;48.28;100879.41;7394092;19;20102;-68
2022/05/25 09:56:02;;;;;;;1.45;0.70;;;;;;;18.49;48.19;100886.66;7395063;19;20015;-67
2022/05/25 09:58:36;;;;;;;1.25;1.00;;;;;;;18.64;47.33;100879.66;7395452;19;20024;-67
2022/05/25 10:01:08;;;;;;;1.50;0.80;;;;;;;18.76;47.46;100872.84;7394723;19;20039;-67
2022/05/25 10:03:39;;;;;;;3.38;1.00;;;;;;;18.86;47.65;100882.03;7394806;19;20093;-68
2022/05/25 10:06:23;;;;;;;2.05;0.98;;;;;;;18.94;46.35;100882.47;7392985;19;20015;-66
2022/05/25 10:09:10;;;;;;;1.42;0.85;;;;;;;19.00;45.61;100887.47;7393170;19;20015;-68
2022/05/25 10:11:44;;;;;;;1.35;0.80;;;;;;;19.03;45.40;100884.66;7393431;19;20010;-68
2022/05/25 10:14:27;;;;;;;2.05;0.80;;;;;;;19.07;44.20;100882.69;7399703;19;20035;-68
2022/05/25 10:16:57;;;;;;;1.45;0.90;;;;;;;19.09;45.79;100871.97;7408830;19;20022;-67
2022/05/25 10:19:26;;;;;;;2.25;0.98;;;;;;;19.18;46.17;100866.13;7407279;19;20031;-68
2022/05/25 10:21:56;;;;;;;2.00;1.00;;;;;;;19.28;45.81;100872.63;7406841;19;20022;-69
2022/05/25 10:24:30;;;;;;;3.40;0.90;;;;;;;19.39;44.61;100863.22;7409582;19;20363;-67
2022/05/25 10:27:00;;;;;;;1.08;0.70;;;;;;;19.52;44.31;100865.09;7408248;19;20509;-67
2022/05/25 10:37:45;;;;;;;2.55;0.73;;;;;;;19.85;42.09;100868.53;7407831;19;20010;-66
2022/05/25 10:40:24;;;;;;;0.82;0.60;;;;;;;19.84;41.35;100846.41;7406971;19;20023;-71
2022/05/25 10:42:59;;;;;;;4.93;0.88;;;;;;;19.85;42.28;100849.91;7407445;19;20014;-70
2022/05/25 10:45:34;;;;;;;2.20;1.13;;;;;;;19.92;42.42;100845.94;7404888;19;20379;-69
2022/05/25 10:48:10;;;;;;;2.65;1.48;;;;;;;20.01;42.82;100842.72;7407352;19;20018;-70
2022/05/25 10:50:48;;;;;;;1.65;0.82;;;;;;;20.08;41.17;100850.34;7405614;19;20031;-67
2022/05/25 10:53:27;;;;;;;1.83;0.80;;;;;;;20.08;42.04;100837.03;7406535;19;20133;-66
2022/05/25 10:56:03;;;;;;;4.85;1.80;;;;;;;20.09;42.51;100844.06;7405796;19;20032;-67
2022/05/25 10:58:46;;;;;;;3.53;1.02;;;;;;;20.13;42.32;100845.59;7407835;19;20022;-66
2022/05/25 11:01:32;;;;;;;1.40;1.15;;;;;;;20.15;41.93;100838.38;7405529;19;20011;-68
2022/05/25 11:04:38;;;;;;;3.58;1.08;;;;;;;20.12;40.15;100842.09;7405846;19;20015;-68
2022/05/25 11:07:23;;;;;;;2.88;1.00;;;;;;;20.19;41.21;100842.56;7406983;19;20010;-68
2022/05/25 11:10:04;;;;;;;5.43;1.30;;;;;;;20.25;41.12;100839.53;7404843;19;20014;-68
2022/05/25 11:12:46;;;;;;;3.97;1.20;;;;;;;20.29;41.20;100841.03;7405422;19;20026;-68
2022/05/25 11:15:26;;;;;;;4.63;1.40;;;;;;;20.26;40.93;100830.59;7404077;19;20391;-69
2022/05/25 11:18:11;;;;;;;4.35;1.45;;;;;;;20.18;39.58;100839.06;7407351;19;20042;-68
2022/05/25 11:20:46;;;;;;;3.30;1.40;;;;;;;20.12;40.90;100833.22;7404231;19;20026;-71
2022/05/25 11:23:31;;;;;;;5.97;1.88;;;;;;;20.10;40.48;100828.00;7404247;19;20023;-68
2022/05/25 11:26:17;;;;;;;3.90;1.45;;;;;;;20.14;39.98;100832.22;7398133;19;20015;-67
2022/05/25 11:29:07;;;;;;;2.92;1.10;;;;;;;20.31;38.70;100831.16;7398339;19;20031;-68
2022/05/25 11:31:42;;;;;;;1.95;1.00;;;;;;;20.48;40.01;100823.94;7396653;19;20022;-68
2022/05/25 11:34:26;;;;;;;2.78;1.05;;;;;;;20.62;39.32;100815.06;7396576;19;20035;-68
2022/05/25 11:37:18;;;;;;;;;;;;;;;20.66;39.60;100828.13;7399574;19;20039;-70
2022/05/25 11:39:57;;;;;;;2.53;0.90;;;;;;;20.64;39.47;100830.00;7395498;19;19932;-67
2022/05/25 11:42:51;;;;;;;2.15;0.70;;;;;;;20.54;38.31;100833.38;7399295;19;20035;-67
2022/05/25 11:45:31;;;;;;;2.25;0.93;;;;;;;20.40;39.42;100828.91;7396771;19;20018;-67
2022/05/25 11:48:13;;;;;;;3.30;0.70;;;;;;;20.22;39.46;100842.41;7399662;19;20032;-71
2022/05/25 11:50:47;;;;;;;6.07;1.35;;;;;;;20.11;40.00;100826.22;7396699;19;20018;-67
2022/05/25 11:53:42;;;;;;;1.25;0.75;;;;;;;20.23;40.21;100824.59;7398872;19;20380;-67
2022/05/25 11:56:26;;;;;;;2.88;1.00;;;;;;;20.46;39.26;100825.81;7396805;19;20022;-67
2022/05/25 11:59:19;;;;;;;2.20;0.90;;;;;;;20.71;38.84;100827.84;7396883;19;20108;-66
2022/05/25 12:01:57;;;;;;;5.05;1.58;;;;;;;21.02;39.32;100825.06;7396531;19;20018;-66
2022/05/25 12:04:55;;;;;;;2.03;0.88;;;;;;;21.29;37.18;100828.59;7398430;19;20480;-66
2022/05/25 12:07:49;;;;;;;3.30;0.93;;;;;;;21.53;37.22;100817.22;7398798;19;20023;-67
2022/05/25 12:10:24;;;;;;;;;;;;;;;21.72;35.85;100821.38;7395659;19;20022;-67
2022/05/25 12:12:59;;;;;;;3.78;0.80;;;;;;;21.80;35.45;100816.38;7398540;19;19931;-68
2022/05/25 12:15:35;;;;;;;1.88;0.70;;;;;;;21.81;35.88;100818.06;7396194;19;20018;-66
2022/05/25 12:18:16;;;;;;;1.65;1.17;;;;;;;21.77;36.53;100817.44;7398386;19;20041;-67